sensor_id;sensor_type;location;lat;lon;timestamp;P1;durP1;ratioP1;P2;durP2;ratioP2
12120;SDS011;6124;59.460;17.908;2023-07-31T00:02:00;4.60;;;3.83;;
12120;SDS011;6124;59.460;17.908;2023-07-31T00:04:28;4.67;;;3.97;;
12120;SDS011;6124;59.460;17.908;2023-07-31T00:06:55;8.43;;;4.30;;
12120;SDS011;6124;59.460;17.908;2023-07-31T00:09:22;5.33;;;4.67;;
12120;SDS011;6124;59.460;17.908;2023-07-31T00:11:50;4.90;;;4.40;;
12120;SDS011;6124;59.460;17.908;2023-07-31T00:14:18;4.43;;;4.03;;
12120;SDS011;6124;59.460;17.908;2023-07-31T00:16:46;5.07;;;4.30;;
12120;SDS011;6124;59.460;17.908;2023-07-31T00:19:13;5.87;;;4.53;;
12120;SDS011;6124;59.460;17.908;2023-07-31T00:21:40;5.27;;;4.33;;
12120;SDS011;6124;59.460;17.908;2023-07-31T00:24:08;6.43;;;5.00;;
12120;SDS011;6124;59.460;17.908;2023-07-31T00:26:35;4.73;;;4.17;;
12120;SDS011;6124;59.460;17.908;2023-07-31T00:29:02;4.67;;;4.27;;
12120;SDS011;6124;59.460;17.908;2023-07-31T00:31:31;4.50;;;4.10;;
12120;SDS011;6124;59.460;17.908;2023-07-31T00:33:58;5.93;;;4.80;;
12120;SDS011;6124;59.460;17.908;2023-07-31T00:36:26;5.27;;;4.27;;
12120;SDS011;6124;59.460;17.908;2023-07-31T00:38:53;5.27;;;4.77;;
12120;SDS011;6124;59.460;17.908;2023-07-31T00:41:20;5.00;;;4.50;;
12120;SDS011;6124;59.460;17.908;2023-07-31T00:43:48;6.73;;;4.87;;
12120;SDS011;6124;59.460;17.908;2023-07-31T00:46:15;5.60;;;4.57;;
12120;SDS011;6124;59.460;17.908;2023-07-31T00:48:44;5.50;;;4.70;;
12120;SDS011;6124;59.460;17.908;2023-07-31T00:51:11;4.77;;;4.27;;
12120;SDS011;6124;59.460;17.908;2023-07-31T00:53:38;5.20;;;4.70;;
12120;SDS011;6124;59.460;17.908;2023-07-31T00:56:06;5.03;;;4.53;;
12120;SDS011;6124;59.460;17.908;2023-07-31T00:58:34;4.70;;;4.20;;
12120;SDS011;6124;59.460;17.908;2023-07-31T01:01:01;6.53;;;4.60;;
12120;SDS011;6124;59.460;17.908;2023-07-31T01:03:28;5.40;;;4.70;;
12120;SDS011;6124;59.460;17.908;2023-07-31T01:06:01;5.53;;;4.97;;
12120;SDS011;6124;59.460;17.908;2023-07-31T01:08:32;5.67;;;4.27;;
12120;SDS011;6124;59.460;17.908;2023-07-31T01:11:00;5.17;;;4.67;;
12120;SDS011;6124;59.460;17.908;2023-07-31T01:13:29;7.07;;;4.73;;
12120;SDS011;6124;59.460;17.908;2023-07-31T01:15:56;7.73;;;4.63;;
12120;SDS011;6124;59.460;17.908;2023-07-31T01:18:24;4.83;;;4.33;;
12120;SDS011;6124;59.460;17.908;2023-07-31T01:20:53;5.53;;;4.63;;
12120;SDS011;6124;59.460;17.908;2023-07-31T01:23:35;6.83;;;4.63;;
12120;SDS011;6124;59.460;17.908;2023-07-31T01:26:07;6.57;;;4.97;;
12120;SDS011;6124;59.460;17.908;2023-07-31T01:28:39;6.67;;;5.80;;
12120;SDS011;6124;59.460;17.908;2023-07-31T01:31:07;6.37;;;5.27;;
12120;SDS011;6124;59.460;17.908;2023-07-31T01:33:37;6.07;;;5.47;;
12120;SDS011;6124;59.460;17.908;2023-07-31T01:36:04;5.53;;;5.00;;
12120;SDS011;6124;59.460;17.908;2023-07-31T01:38:32;6.47;;;5.67;;
12120;SDS011;6124;59.460;17.908;2023-07-31T01:40:59;6.43;;;5.77;;
12120;SDS011;6124;59.460;17.908;2023-07-31T01:43:28;5.60;;;5.10;;
12120;SDS011;6124;59.460;17.908;2023-07-31T01:45:56;6.57;;;5.67;;
12120;SDS011;6124;59.460;17.908;2023-07-31T01:48:23;7.23;;;5.23;;
12120;SDS011;6124;59.460;17.908;2023-07-31T01:50:50;6.23;;;5.63;;
12120;SDS011;6124;59.460;17.908;2023-07-31T01:53:18;5.90;;;5.27;;
12120;SDS011;6124;59.460;17.908;2023-07-31T01:55:45;5.23;;;4.73;;
12120;SDS011;6124;59.460;17.908;2023-07-31T01:58:12;7.83;;;5.93;;
12120;SDS011;6124;59.460;17.908;2023-07-31T02:00:41;6.60;;;5.43;;
12120;SDS011;6124;59.460;17.908;2023-07-31T02:03:08;6.30;;;5.33;;
12120;SDS011;6124;59.460;17.908;2023-07-31T02:05:36;5.93;;;5.33;;
12120;SDS011;6124;59.460;17.908;2023-07-31T02:08:03;5.87;;;5.27;;
12120;SDS011;6124;59.460;17.908;2023-07-31T02:10:30;8.10;;;5.00;;
12120;SDS011;6124;59.460;17.908;2023-07-31T02:12:57;7.47;;;5.50;;
12120;SDS011;6124;59.460;17.908;2023-07-31T02:15:25;6.63;;;5.63;;
12120;SDS011;6124;59.460;17.908;2023-07-31T02:17:53;6.57;;;5.57;;
12120;SDS011;6124;59.460;17.908;2023-07-31T02:20:21;7.30;;;5.67;;
12120;SDS011;6124;59.460;17.908;2023-07-31T02:22:48;7.87;;;5.60;;
12120;SDS011;6124;59.460;17.908;2023-07-31T02:25:15;6.27;;;5.50;;
12120;SDS011;6124;59.460;17.908;2023-07-31T02:27:43;7.63;;;5.70;;
12120;SDS011;6124;59.460;17.908;2023-07-31T02:30:11;10.40;;;6.03;;
12120;SDS011;6124;59.460;17.908;2023-07-31T02:32:38;6.07;;;5.47;;
12120;SDS011;6124;59.460;17.908;2023-07-31T02:35:07;7.30;;;5.93;;
12120;SDS011;6124;59.460;17.908;2023-07-31T02:37:35;6.63;;;5.57;;
12120;SDS011;6124;59.460;17.908;2023-07-31T02:40:03;6.57;;;5.60;;
12120;SDS011;6124;59.460;17.908;2023-07-31T02:42:31;6.93;;;5.47;;
12120;SDS011;6124;59.460;17.908;2023-07-31T02:44:58;5.33;;;4.83;;
12120;SDS011;6124;59.460;17.908;2023-07-31T02:47:25;8.37;;;5.63;;
12120;SDS011;6124;59.460;17.908;2023-07-31T02:49:52;6.90;;;5.70;;
12120;SDS011;6124;59.460;17.908;2023-07-31T02:52:22;6.43;;;5.27;;
12120;SDS011;6124;59.460;17.908;2023-07-31T02:54:49;5.37;;;4.87;;
12120;SDS011;6124;59.460;17.908;2023-07-31T02:57:17;6.70;;;5.43;;
12120;SDS011;6124;59.460;17.908;2023-07-31T02:59:44;7.77;;;6.00;;
12120;SDS011;6124;59.460;17.908;2023-07-31T03:02:11;6.37;;;5.77;;
12120;SDS011;6124;59.460;17.908;2023-07-31T03:04:39;6.83;;;5.67;;
12120;SDS011;6124;59.460;17.908;2023-07-31T03:07:06;7.77;;;5.80;;
12120;SDS011;6124;59.460;17.908;2023-07-31T03:09:35;7.57;;;6.40;;
12120;SDS011;6124;59.460;17.908;2023-07-31T03:12:02;8.83;;;6.60;;
12120;SDS011;6124;59.460;17.908;2023-07-31T03:14:30;8.13;;;6.40;;
12120;SDS011;6124;59.460;17.908;2023-07-31T03:16:57;9.83;;;6.83;;
12120;SDS011;6124;59.460;17.908;2023-07-31T03:19:24;9.00;;;6.83;;
12120;SDS011;6124;59.460;17.908;2023-07-31T03:21:52;10.10;;;6.43;;
12120;SDS011;6124;59.460;17.908;2023-07-31T03:24:19;7.97;;;6.30;;
12120;SDS011;6124;59.460;17.908;2023-07-31T03:26:48;9.83;;;6.50;;
12120;SDS011;6124;59.460;17.908;2023-07-31T03:29:15;7.60;;;6.13;;
12120;SDS011;6124;59.460;17.908;2023-07-31T03:31:43;8.43;;;6.10;;
12120;SDS011;6124;59.460;17.908;2023-07-31T03:34:10;10.27;;;7.00;;
12120;SDS011;6124;59.460;17.908;2023-07-31T03:36:37;7.40;;;6.40;;
12120;SDS011;6124;59.460;17.908;2023-07-31T03:39:05;6.87;;;6.17;;
12120;SDS011;6124;59.460;17.908;2023-07-31T03:41:32;7.80;;;7.00;;
12120;SDS011;6124;59.460;17.908;2023-07-31T03:44:01;9.13;;;6.50;;
12120;SDS011;6124;59.460;17.908;2023-07-31T03:46:28;8.17;;;6.83;;
12120;SDS011;6124;59.460;17.908;2023-07-31T03:48:55;7.63;;;6.60;;
12120;SDS011;6124;59.460;17.908;2023-07-31T03:51:23;8.60;;;6.50;;
12120;SDS011;6124;59.460;17.908;2023-07-31T03:53:50;7.93;;;6.90;;
12120;SDS011;6124;59.460;17.908;2023-07-31T03:56:17;8.40;;;6.83;;
12120;SDS011;6124;59.460;17.908;2023-07-31T03:58:44;6.93;;;6.23;;
12120;SDS011;6124;59.460;17.908;2023-07-31T04:01:13;6.53;;;5.83;;
12120;SDS011;6124;59.460;17.908;2023-07-31T04:03:40;7.10;;;6.27;;
12120;SDS011;6124;59.460;17.908;2023-07-31T04:06:08;7.13;;;6.20;;
12120;SDS011;6124;59.460;17.908;2023-07-31T04:08:35;10.50;;;7.13;;
12120;SDS011;6124;59.460;17.908;2023-07-31T04:11:03;6.33;;;5.70;;
12120;SDS011;6124;59.460;17.908;2023-07-31T04:13:30;10.37;;;7.13;;
12120;SDS011;6124;59.460;17.908;2023-07-31T04:15:58;10.43;;;8.47;;
12120;SDS011;6124;59.460;17.908;2023-07-31T04:18:27;11.17;;;8.40;;
12120;SDS011;6124;59.460;17.908;2023-07-31T04:20:56;9.43;;;7.93;;
12120;SDS011;6124;59.460;17.908;2023-07-31T04:23:23;9.27;;;7.83;;
12120;SDS011;6124;59.460;17.908;2023-07-31T04:25:51;8.03;;;7.07;;
12120;SDS011;6124;59.460;17.908;2023-07-31T04:28:18;13.97;;;8.70;;
12120;SDS011;6124;59.460;17.908;2023-07-31T04:30:45;10.33;;;8.47;;
12120;SDS011;6124;59.460;17.908;2023-07-31T04:33:12;12.60;;;9.43;;
12120;SDS011;6124;59.460;17.908;2023-07-31T04:35:41;10.83;;;8.43;;
12120;SDS011;6124;59.460;17.908;2023-07-31T04:38:09;11.57;;;8.73;;
12120;SDS011;6124;59.460;17.908;2023-07-31T04:40:36;10.30;;;8.73;;
12120;SDS011;6124;59.460;17.908;2023-07-31T04:43:03;11.20;;;8.67;;
12120;SDS011;6124;59.460;17.908;2023-07-31T04:45:30;13.37;;;9.27;;
12120;SDS011;6124;59.460;17.908;2023-07-31T04:47:58;11.70;;;8.40;;
12120;SDS011;6124;59.460;17.908;2023-07-31T04:50:25;9.53;;;8.27;;
12120;SDS011;6124;59.460;17.908;2023-07-31T04:52:54;10.73;;;9.37;;
12120;SDS011;6124;59.460;17.908;2023-07-31T04:55:21;12.83;;;9.47;;
12120;SDS011;6124;59.460;17.908;2023-07-31T04:57:48;12.90;;;9.67;;
12120;SDS011;6124;59.460;17.908;2023-07-31T05:00:16;12.30;;;9.63;;
12120;SDS011;6124;59.460;17.908;2023-07-31T05:02:43;10.57;;;9.30;;
12120;SDS011;6124;59.460;17.908;2023-07-31T05:05:11;13.30;;;9.83;;
12120;SDS011;6124;59.460;17.908;2023-07-31T05:07:38;14.87;;;9.83;;
12120;SDS011;6124;59.460;17.908;2023-07-31T05:10:07;10.30;;;9.27;;
12120;SDS011;6124;59.460;17.908;2023-07-31T05:12:35;9.43;;;8.17;;
12120;SDS011;6124;59.460;17.908;2023-07-31T05:15:02;11.33;;;8.97;;
12120;SDS011;6124;59.460;17.908;2023-07-31T05:17:30;12.50;;;9.47;;
12120;SDS011;6124;59.460;17.908;2023-07-31T05:19:57;11.10;;;9.90;;
12120;SDS011;6124;59.460;17.908;2023-07-31T05:22:24;12.53;;;10.70;;
12120;SDS011;6124;59.460;17.908;2023-07-31T05:24:52;11.30;;;9.53;;
12120;SDS011;6124;59.460;17.908;2023-07-31T05:27:20;10.20;;;9.07;;
12120;SDS011;6124;59.460;17.908;2023-07-31T05:29:48;9.53;;;8.13;;
12120;SDS011;6124;59.460;17.908;2023-07-31T05:32:15;10.87;;;9.87;;
12120;SDS011;6124;59.460;17.908;2023-07-31T05:34:42;11.80;;;10.60;;
12120;SDS011;6124;59.460;17.908;2023-07-31T05:37:10;14.27;;;10.37;;
12120;SDS011;6124;59.460;17.908;2023-07-31T05:39:37;13.10;;;9.73;;
12120;SDS011;6124;59.460;17.908;2023-07-31T05:42:05;10.77;;;9.67;;
12120;SDS011;6124;59.460;17.908;2023-07-31T05:44:33;14.13;;;11.63;;
12120;SDS011;6124;59.460;17.908;2023-07-31T05:47:01;11.03;;;9.93;;
12120;SDS011;6124;59.460;17.908;2023-07-31T05:49:28;13.13;;;11.40;;
12120;SDS011;6124;59.460;17.908;2023-07-31T05:51:56;12.07;;;10.93;;
12120;SDS011;6124;59.460;17.908;2023-07-31T05:54:23;14.27;;;10.80;;
12120;SDS011;6124;59.460;17.908;2023-07-31T05:56:51;14.80;;;11.00;;
12120;SDS011;6124;59.460;17.908;2023-07-31T05:59:18;11.30;;;9.60;;
12120;SDS011;6124;59.460;17.908;2023-07-31T06:01:47;11.73;;;10.53;;
12120;SDS011;6124;59.460;17.908;2023-07-31T06:04:14;10.40;;;9.40;;
12120;SDS011;6124;59.460;17.908;2023-07-31T06:06:41;11.93;;;10.67;;
12120;SDS011;6124;59.460;17.908;2023-07-31T06:09:09;11.30;;;10.20;;
12120;SDS011;6124;59.460;17.908;2023-07-31T06:11:36;12.40;;;11.10;;
12120;SDS011;6124;59.460;17.908;2023-07-31T06:14:04;13.07;;;11.27;;
12120;SDS011;6124;59.460;17.908;2023-07-31T06:16:31;13.13;;;11.50;;
12120;SDS011;6124;59.460;17.908;2023-07-31T06:19:00;11.77;;;10.57;;
12120;SDS011;6124;59.460;17.908;2023-07-31T06:21:27;12.10;;;10.90;;
12120;SDS011;6124;59.460;17.908;2023-07-31T06:23:55;12.73;;;10.63;;
12120;SDS011;6124;59.460;17.908;2023-07-31T06:26:22;11.90;;;10.70;;
12120;SDS011;6124;59.460;17.908;2023-07-31T06:28:50;10.50;;;9.43;;
12120;SDS011;6124;59.460;17.908;2023-07-31T06:31:17;10.70;;;9.60;;
12120;SDS011;6124;59.460;17.908;2023-07-31T06:33:47;9.77;;;8.87;;
12120;SDS011;6124;59.460;17.908;2023-07-31T06:36:16;9.23;;;8.00;;
12120;SDS011;6124;59.460;17.908;2023-07-31T06:38:44;10.43;;;9.10;;
12120;SDS011;6124;59.460;17.908;2023-07-31T06:41:11;11.97;;;9.27;;
12120;SDS011;6124;59.460;17.908;2023-07-31T06:43:38;10.17;;;8.40;;
12120;SDS011;6124;59.460;17.908;2023-07-31T06:46:06;9.53;;;7.87;;
12120;SDS011;6124;59.460;17.908;2023-07-31T06:48:34;8.57;;;7.50;;
12120;SDS011;6124;59.460;17.908;2023-07-31T06:51:02;9.07;;;7.67;;
12120;SDS011;6124;59.460;17.908;2023-07-31T06:53:30;10.63;;;7.70;;
12120;SDS011;6124;59.460;17.908;2023-07-31T06:55:58;8.30;;;7.43;;
12120;SDS011;6124;59.460;17.908;2023-07-31T06:58:25;8.63;;;7.60;;
12120;SDS011;6124;59.460;17.908;2023-07-31T07:00:52;6.97;;;6.27;;
12120;SDS011;6124;59.460;17.908;2023-07-31T07:03:20;7.57;;;6.73;;
12120;SDS011;6124;59.460;17.908;2023-07-31T07:05:47;7.37;;;6.53;;
12120;SDS011;6124;59.460;17.908;2023-07-31T07:08:15;6.60;;;5.90;;
12120;SDS011;6124;59.460;17.908;2023-07-31T07:10:44;6.60;;;5.23;;
12120;SDS011;6124;59.460;17.908;2023-07-31T07:13:11;6.93;;;5.20;;
12120;SDS011;6124;59.460;17.908;2023-07-31T07:15:38;5.33;;;4.80;;
12120;SDS011;6124;59.460;17.908;2023-07-31T07:18:06;6.80;;;3.90;;
12120;SDS011;6124;59.460;17.908;2023-07-31T07:20:35;6.93;;;3.80;;
12120;SDS011;6124;59.460;17.908;2023-07-31T07:23:03;5.23;;;3.60;;
12120;SDS011;6124;59.460;17.908;2023-07-31T07:25:30;3.93;;;3.50;;
12120;SDS011;6124;59.460;17.908;2023-07-31T07:27:59;6.60;;;4.07;;
12120;SDS011;6124;59.460;17.908;2023-07-31T07:30:26;5.50;;;3.80;;
12120;SDS011;6124;59.460;17.908;2023-07-31T07:32:53;6.37;;;3.40;;
12120;SDS011;6124;59.460;17.908;2023-07-31T07:35:21;5.40;;;3.60;;
12120;SDS011;6124;59.460;17.908;2023-07-31T07:37:48;5.53;;;3.80;;
12120;SDS011;6124;59.460;17.908;2023-07-31T07:40:16;5.40;;;3.60;;
12120;SDS011;6124;59.460;17.908;2023-07-31T07:42:43;5.43;;;3.60;;
12120;SDS011;6124;59.460;17.908;2023-07-31T07:45:12;7.40;;;4.00;;
12120;SDS011;6124;59.460;17.908;2023-07-31T07:47:40;7.10;;;4.17;;
12120;SDS011;6124;59.460;17.908;2023-07-31T07:50:08;8.73;;;4.27;;
12120;SDS011;6124;59.460;17.908;2023-07-31T07:52:35;8.53;;;3.90;;
12120;SDS011;6124;59.460;17.908;2023-07-31T07:55:03;7.57;;;4.23;;
12120;SDS011;6124;59.460;17.908;2023-07-31T07:57:30;6.77;;;4.20;;
12120;SDS011;6124;59.460;17.908;2023-07-31T07:59:57;7.63;;;3.77;;
12120;SDS011;6124;59.460;17.908;2023-07-31T08:02:26;7.63;;;4.00;;
12120;SDS011;6124;59.460;17.908;2023-07-31T08:04:53;5.20;;;4.33;;
12120;SDS011;6124;59.460;17.908;2023-07-31T08:07:21;6.43;;;4.13;;
12120;SDS011;6124;59.460;17.908;2023-07-31T08:09:48;7.50;;;4.63;;
12120;SDS011;6124;59.460;17.908;2023-07-31T08:12:15;6.20;;;4.20;;
12120;SDS011;6124;59.460;17.908;2023-07-31T08:14:42;5.33;;;4.00;;
12120;SDS011;6124;59.460;17.908;2023-07-31T08:17:10;4.60;;;4.20;;
12120;SDS011;6124;59.460;17.908;2023-07-31T08:19:39;8.07;;;4.37;;
12120;SDS011;6124;59.460;17.908;2023-07-31T08:22:06;5.60;;;4.30;;
12120;SDS011;6124;59.460;17.908;2023-07-31T08:24:33;7.33;;;4.57;;
12120;SDS011;6124;59.460;17.908;2023-07-31T08:27:01;6.00;;;4.00;;
12120;SDS011;6124;59.460;17.908;2023-07-31T08:29:28;6.67;;;4.10;;
12120;SDS011;6124;59.460;17.908;2023-07-31T08:31:55;6.40;;;4.30;;
12120;SDS011;6124;59.460;17.908;2023-07-31T08:34:22;4.50;;;4.10;;
12120;SDS011;6124;59.460;17.908;2023-07-31T08:36:51;6.03;;;4.07;;
12120;SDS011;6124;59.460;17.908;2023-07-31T08:39:18;5.63;;;4.03;;
12120;SDS011;6124;59.460;17.908;2023-07-31T08:41:46;6.40;;;4.40;;
12120;SDS011;6124;59.460;17.908;2023-07-31T08:44:14;8.43;;;4.50;;
12120;SDS011;6124;59.460;17.908;2023-07-31T08:46:42;8.40;;;4.47;;
12120;SDS011;6124;59.460;17.908;2023-07-31T08:49:10;7.43;;;4.80;;
12120;SDS011;6124;59.460;17.908;2023-07-31T08:51:37;7.27;;;4.70;;
12120;SDS011;6124;59.460;17.908;2023-07-31T08:54:06;9.47;;;4.57;;
12120;SDS011;6124;59.460;17.908;2023-07-31T08:56:34;11.40;;;4.60;;
12120;SDS011;6124;59.460;17.908;2023-07-31T08:59:03;6.50;;;5.00;;
12120;SDS011;6124;59.460;17.908;2023-07-31T09:01:30;6.20;;;4.23;;
12120;SDS011;6124;59.460;17.908;2023-07-31T09:04:00;9.03;;;4.73;;
12120;SDS011;6124;59.460;17.908;2023-07-31T09:06:28;6.80;;;4.77;;
12120;SDS011;6124;59.460;17.908;2023-07-31T09:08:57;7.03;;;4.90;;
12120;SDS011;6124;59.460;17.908;2023-07-31T09:11:25;9.50;;;5.13;;
12120;SDS011;6124;59.460;17.908;2023-07-31T09:13:54;6.83;;;4.60;;
12120;SDS011;6124;59.460;17.908;2023-07-31T09:16:27;6.73;;;4.50;;
12120;SDS011;6124;59.460;17.908;2023-07-31T09:18:57;11.37;;;4.80;;
12120;SDS011;6124;59.460;17.908;2023-07-31T09:21:26;6.87;;;4.33;;
12120;SDS011;6124;59.460;17.908;2023-07-31T09:23:54;7.33;;;4.53;;
12120;SDS011;6124;59.460;17.908;2023-07-31T09:26:33;10.77;;;4.43;;
12120;SDS011;6124;59.460;17.908;2023-07-31T09:29:00;5.63;;;3.90;;
12120;SDS011;6124;59.460;17.908;2023-07-31T09:31:40;6.93;;;4.17;;
12120;SDS011;6124;59.460;17.908;2023-07-31T09:34:08;6.10;;;4.40;;
12120;SDS011;6124;59.460;17.908;2023-07-31T09:36:39;6.17;;;3.83;;
12120;SDS011;6124;59.460;17.908;2023-07-31T09:39:08;6.30;;;4.13;;
12120;SDS011;6124;59.460;17.908;2023-07-31T09:41:37;5.40;;;3.23;;
12120;SDS011;6124;59.460;17.908;2023-07-31T09:44:05;6.60;;;3.63;;
12120;SDS011;6124;59.460;17.908;2023-07-31T09:46:33;6.20;;;3.80;;
12120;SDS011;6124;59.460;17.908;2023-07-31T09:49:08;6.63;;;3.33;;
12120;SDS011;6124;59.460;17.908;2023-07-31T09:51:35;5.17;;;2.90;;
12120;SDS011;6124;59.460;17.908;2023-07-31T09:54:13;5.50;;;3.20;;
12120;SDS011;6124;59.460;17.908;2023-07-31T09:56:42;4.70;;;3.00;;
12120;SDS011;6124;59.460;17.908;2023-07-31T09:59:11;5.43;;;2.57;;
12120;SDS011;6124;59.460;17.908;2023-07-31T10:01:39;4.17;;;2.63;;
12120;SDS011;6124;59.460;17.908;2023-07-31T10:04:07;4.17;;;2.40;;
12120;SDS011;6124;59.460;17.908;2023-07-31T10:06:35;4.13;;;2.87;;
12120;SDS011;6124;59.460;17.908;2023-07-31T10:09:04;7.33;;;2.57;;
12120;SDS011;6124;59.460;17.908;2023-07-31T10:11:33;5.00;;;2.40;;
12120;SDS011;6124;59.460;17.908;2023-07-31T10:14:02;6.70;;;2.77;;
12120;SDS011;6124;59.460;17.908;2023-07-31T10:16:30;4.50;;;2.70;;
12120;SDS011;6124;59.460;17.908;2023-07-31T10:18:58;5.73;;;2.70;;
12120;SDS011;6124;59.460;17.908;2023-07-31T10:21:26;3.90;;;2.33;;
12120;SDS011;6124;59.460;17.908;2023-07-31T10:23:53;8.50;;;2.67;;
12120;SDS011;6124;59.460;17.908;2023-07-31T10:26:22;6.13;;;2.80;;
12120;SDS011;6124;59.460;17.908;2023-07-31T10:28:50;4.10;;;2.67;;
12120;SDS011;6124;59.460;17.908;2023-07-31T10:31:20;4.77;;;2.57;;
12120;SDS011;6124;59.460;17.908;2023-07-31T10:33:48;4.43;;;2.40;;
12120;SDS011;6124;59.460;17.908;2023-07-31T10:36:17;4.30;;;2.80;;
12120;SDS011;6124;59.460;17.908;2023-07-31T10:38:44;3.83;;;2.30;;
12120;SDS011;6124;59.460;17.908;2023-07-31T10:41:11;4.80;;;2.73;;
12120;SDS011;6124;59.460;17.908;2023-07-31T10:43:39;3.73;;;2.50;;
12120;SDS011;6124;59.460;17.908;2023-07-31T10:46:06;4.00;;;2.50;;
12120;SDS011;6124;59.460;17.908;2023-07-31T10:48:36;5.10;;;3.00;;
12120;SDS011;6124;59.460;17.908;2023-07-31T10:51:06;4.30;;;2.37;;
12120;SDS011;6124;59.460;17.908;2023-07-31T10:53:35;4.00;;;2.73;;
12120;SDS011;6124;59.460;17.908;2023-07-31T10:56:03;4.10;;;2.57;;
12120;SDS011;6124;59.460;17.908;2023-07-31T10:58:30;2.90;;;2.10;;
12120;SDS011;6124;59.460;17.908;2023-07-31T11:00:59;4.00;;;2.47;;
12120;SDS011;6124;59.460;17.908;2023-07-31T11:03:27;3.53;;;2.50;;
12120;SDS011;6124;59.460;17.908;2023-07-31T11:06:00;5.87;;;2.77;;
12120;SDS011;6124;59.460;17.908;2023-07-31T11:08:29;4.87;;;2.70;;
12120;SDS011;6124;59.460;17.908;2023-07-31T11:11:07;4.93;;;2.50;;
12120;SDS011;6124;59.460;17.908;2023-07-31T11:13:39;5.60;;;2.60;;
12120;SDS011;6124;59.460;17.908;2023-07-31T11:16:06;6.67;;;2.43;;
12120;SDS011;6124;59.460;17.908;2023-07-31T11:18:34;4.33;;;2.40;;
12120;SDS011;6124;59.460;17.908;2023-07-31T11:21:03;4.17;;;2.57;;
12120;SDS011;6124;59.460;17.908;2023-07-31T11:23:30;3.30;;;2.37;;
12120;SDS011;6124;59.460;17.908;2023-07-31T11:25:58;6.47;;;2.67;;
12120;SDS011;6124;59.460;17.908;2023-07-31T11:28:30;5.30;;;2.73;;
12120;SDS011;6124;59.460;17.908;2023-07-31T11:30:58;4.50;;;2.57;;
12120;SDS011;6124;59.460;17.908;2023-07-31T11:33:25;4.50;;;2.80;;
12120;SDS011;6124;59.460;17.908;2023-07-31T11:35:52;5.33;;;2.90;;
12120;SDS011;6124;59.460;17.908;2023-07-31T11:38:25;4.07;;;2.47;;
12120;SDS011;6124;59.460;17.908;2023-07-31T11:40:52;5.73;;;2.83;;
12120;SDS011;6124;59.460;17.908;2023-07-31T11:43:20;4.40;;;2.33;;
12120;SDS011;6124;59.460;17.908;2023-07-31T11:45:48;7.33;;;2.90;;
12120;SDS011;6124;59.460;17.908;2023-07-31T11:48:19;4.60;;;2.33;;
12120;SDS011;6124;59.460;17.908;2023-07-31T11:50:47;4.63;;;3.20;;
12120;SDS011;6124;59.460;17.908;2023-07-31T11:53:16;5.47;;;3.00;;
12120;SDS011;6124;59.460;17.908;2023-07-31T11:55:45;5.13;;;3.00;;
12120;SDS011;6124;59.460;17.908;2023-07-31T11:58:13;6.40;;;2.83;;
12120;SDS011;6124;59.460;17.908;2023-07-31T12:00:40;4.87;;;2.53;;
12120;SDS011;6124;59.460;17.908;2023-07-31T12:03:08;5.80;;;2.60;;
12120;SDS011;6124;59.460;17.908;2023-07-31T12:05:36;4.40;;;2.80;;
12120;SDS011;6124;59.460;17.908;2023-07-31T12:08:08;5.40;;;2.70;;
12120;SDS011;6124;59.460;17.908;2023-07-31T12:10:36;3.47;;;2.20;;
12120;SDS011;6124;59.460;17.908;2023-07-31T12:13:07;4.60;;;2.20;;
12120;SDS011;6124;59.460;17.908;2023-07-31T12:15:39;4.80;;;2.70;;
12120;SDS011;6124;59.460;17.908;2023-07-31T12:18:07;5.17;;;2.37;;
12120;SDS011;6124;59.460;17.908;2023-07-31T12:20:35;3.67;;;2.60;;
12120;SDS011;6124;59.460;17.908;2023-07-31T12:23:02;3.63;;;2.30;;
12120;SDS011;6124;59.460;17.908;2023-07-31T12:25:30;4.23;;;2.27;;
12120;SDS011;6124;59.460;17.908;2023-07-31T12:27:57;3.10;;;2.37;;
12120;SDS011;6124;59.460;17.908;2023-07-31T12:30:31;4.03;;;2.57;;
12120;SDS011;6124;59.460;17.908;2023-07-31T12:33:02;4.83;;;2.60;;
12120;SDS011;6124;59.460;17.908;2023-07-31T12:35:34;6.33;;;2.80;;
12120;SDS011;6124;59.460;17.908;2023-07-31T12:38:02;4.57;;;2.63;;
12120;SDS011;6124;59.460;17.908;2023-07-31T12:40:29;4.87;;;2.87;;
12120;SDS011;6124;59.460;17.908;2023-07-31T12:42:57;5.33;;;2.63;;
12120;SDS011;6124;59.460;17.908;2023-07-31T12:45:24;6.80;;;3.23;;
12120;SDS011;6124;59.460;17.908;2023-07-31T12:47:53;4.83;;;2.73;;
12120;SDS011;6124;59.460;17.908;2023-07-31T12:50:20;4.47;;;2.80;;
12120;SDS011;6124;59.460;17.908;2023-07-31T12:52:48;3.93;;;2.70;;
12120;SDS011;6124;59.460;17.908;2023-07-31T12:55:16;4.80;;;2.63;;
12120;SDS011;6124;59.460;17.908;2023-07-31T12:57:44;5.30;;;2.70;;
12120;SDS011;6124;59.460;17.908;2023-07-31T13:00:12;3.43;;;2.40;;
12120;SDS011;6124;59.460;17.908;2023-07-31T13:02:39;4.97;;;2.37;;
12120;SDS011;6124;59.460;17.908;2023-07-31T13:05:08;3.00;;;2.27;;
12120;SDS011;6124;59.460;17.908;2023-07-31T13:07:35;4.07;;;2.50;;
12120;SDS011;6124;59.460;17.908;2023-07-31T13:10:03;4.87;;;2.40;;
12120;SDS011;6124;59.460;17.908;2023-07-31T13:12:31;3.23;;;2.43;;
12120;SDS011;6124;59.460;17.908;2023-07-31T13:14:58;6.80;;;2.87;;
12120;SDS011;6124;59.460;17.908;2023-07-31T13:17:25;3.83;;;2.43;;
12120;SDS011;6124;59.460;17.908;2023-07-31T13:19:53;4.10;;;2.93;;
12120;SDS011;6124;59.460;17.908;2023-07-31T13:22:21;4.80;;;2.77;;
12120;SDS011;6124;59.460;17.908;2023-07-31T13:24:49;3.70;;;2.60;;
12120;SDS011;6124;59.460;17.908;2023-07-31T13:27:16;3.80;;;2.60;;
12120;SDS011;6124;59.460;17.908;2023-07-31T13:29:45;5.40;;;2.40;;
12120;SDS011;6124;59.460;17.908;2023-07-31T13:32:13;4.43;;;2.57;;
12120;SDS011;6124;59.460;17.908;2023-07-31T13:34:40;4.27;;;2.90;;
12120;SDS011;6124;59.460;17.908;2023-07-31T13:37:07;5.27;;;2.90;;
12120;SDS011;6124;59.460;17.908;2023-07-31T13:39:36;6.20;;;3.10;;
12120;SDS011;6124;59.460;17.908;2023-07-31T13:42:06;4.83;;;3.27;;
12120;SDS011;6124;59.460;17.908;2023-07-31T13:44:34;7.07;;;3.43;;
12120;SDS011;6124;59.460;17.908;2023-07-31T13:47:01;5.70;;;3.40;;
12120;SDS011;6124;59.460;17.908;2023-07-31T13:49:28;6.00;;;3.07;;
12120;SDS011;6124;59.460;17.908;2023-07-31T13:51:56;4.83;;;3.47;;
12120;SDS011;6124;59.460;17.908;2023-07-31T13:54:24;5.20;;;3.30;;
12120;SDS011;6124;59.460;17.908;2023-07-31T13:56:53;4.07;;;2.37;;
12120;SDS011;6124;59.460;17.908;2023-07-31T13:59:20;3.23;;;2.77;;
12120;SDS011;6124;59.460;17.908;2023-07-31T14:01:48;4.57;;;2.93;;
12120;SDS011;6124;59.460;17.908;2023-07-31T14:04:15;5.20;;;2.70;;
12120;SDS011;6124;59.460;17.908;2023-07-31T14:06:42;4.57;;;2.77;;
12120;SDS011;6124;59.460;17.908;2023-07-31T14:09:10;6.20;;;2.80;;
12120;SDS011;6124;59.460;17.908;2023-07-31T14:11:37;5.27;;;3.10;;
12120;SDS011;6124;59.460;17.908;2023-07-31T14:14:06;3.03;;;2.50;;
12120;SDS011;6124;59.460;17.908;2023-07-31T14:16:33;6.37;;;3.10;;
12120;SDS011;6124;59.460;17.908;2023-07-31T14:19:00;5.50;;;2.77;;
12120;SDS011;6124;59.460;17.908;2023-07-31T14:21:28;4.80;;;2.67;;
12120;SDS011;6124;59.460;17.908;2023-07-31T14:23:55;3.33;;;2.50;;
12120;SDS011;6124;59.460;17.908;2023-07-31T14:26:22;4.37;;;2.70;;
12120;SDS011;6124;59.460;17.908;2023-07-31T14:28:50;2.70;;;2.50;;
12120;SDS011;6124;59.460;17.908;2023-07-31T14:31:18;3.80;;;3.00;;
12120;SDS011;6124;59.460;17.908;2023-07-31T14:33:46;3.97;;;2.50;;
12120;SDS011;6124;59.460;17.908;2023-07-31T14:36:13;6.00;;;3.17;;
12120;SDS011;6124;59.460;17.908;2023-07-31T14:38:40;4.00;;;2.73;;
12120;SDS011;6124;59.460;17.908;2023-07-31T14:41:07;3.50;;;2.57;;
12120;SDS011;6124;59.460;17.908;2023-07-31T14:43:35;5.53;;;2.97;;
12120;SDS011;6124;59.460;17.908;2023-07-31T14:46:02;4.20;;;2.50;;
12120;SDS011;6124;59.460;17.908;2023-07-31T14:48:31;4.33;;;2.40;;
12120;SDS011;6124;59.460;17.908;2023-07-31T14:50:58;3.93;;;2.63;;